sensor_id;sensor_type;location;lat;lon;timestamp;P1;durP1;ratioP1;P2;durP2;ratioP2
4595;SDS011;2310;49.978;8.742;2024-02-21T00:03:02;13.03;;;7.50;;
4595;SDS011;2310;49.978;8.742;2024-02-21T00:07:10;19.63;;;8.33;;
4595;SDS011;2310;49.978;8.742;2024-02-21T00:11:11;17.03;;;8.47;;
4595;SDS011;2310;49.978;8.742;2024-02-21T00:15:13;15.50;;;7.40;;
4595;SDS011;2310;49.978;8.742;2024-02-21T00:19:14;13.03;;;8.47;;
4595;SDS011;2310;49.978;8.742;2024-02-21T00:23:16;12.90;;;8.67;;
4595;SDS011;2310;49.978;8.742;2024-02-21T00:27:17;20.40;;;8.70;;
4595;SDS011;2310;49.978;8.742;2024-02-21T00:31:18;19.20;;;10.27;;
4595;SDS011;2310;49.978;8.742;2024-02-21T00:35:20;16.00;;;9.30;;
4595;SDS011;2310;49.978;8.742;2024-02-21T00:39:21;19.60;;;8.93;;
4595;SDS011;2310;49.978;8.742;2024-02-21T00:43:22;17.80;;;10.00;;
4595;SDS011;2310;49.978;8.742;2024-02-21T00:47:25;14.20;;;10.00;;
4595;SDS011;2310;49.978;8.742;2024-02-21T00:51:27;19.53;;;10.30;;
4595;SDS011;2310;49.978;8.742;2024-02-21T00:55:28;15.70;;;10.40;;
4595;SDS011;2310;49.978;8.742;2024-02-21T00:59:29;20.63;;;12.60;;
4595;SDS011;2310;49.978;8.742;2024-02-21T01:03:31;21.37;;;11.20;;
4595;SDS011;2310;49.978;8.742;2024-02-21T01:07:32;16.30;;;10.13;;
4595;SDS011;2310;49.978;8.742;2024-02-21T01:11:33;24.33;;;10.60;;
4595;SDS011;2310;49.978;8.742;2024-02-21T01:15:35;15.20;;;9.67;;
4595;SDS011;2310;49.978;8.742;2024-02-21T01:19:36;15.27;;;10.10;;
4595;SDS011;2310;49.978;8.742;2024-02-21T01:23:38;16.10;;;9.23;;
4595;SDS011;2310;49.978;8.742;2024-02-21T01:27:39;22.07;;;10.73;;
4595;SDS011;2310;49.978;8.742;2024-02-21T01:31:40;16.60;;;9.43;;
4595;SDS011;2310;49.978;8.742;2024-02-21T01:35:42;15.30;;;10.90;;
4595;SDS011;2310;49.978;8.742;2024-02-21T01:39:43;21.30;;;11.10;;
4595;SDS011;2310;49.978;8.742;2024-02-21T01:43:45;20.10;;;10.20;;
4595;SDS011;2310;49.978;8.742;2024-02-21T01:47:46;20.40;;;10.70;;
4595;SDS011;2310;49.978;8.742;2024-02-21T01:51:48;11.73;;;8.87;;
4595;SDS011;2310;49.978;8.742;2024-02-21T01:55:50;13.40;;;9.20;;
4595;SDS011;2310;49.978;8.742;2024-02-21T01:59:52;17.53;;;9.50;;
4595;SDS011;2310;49.978;8.742;2024-02-21T02:03:53;17.23;;;9.23;;
4595;SDS011;2310;49.978;8.742;2024-02-21T02:07:56;15.70;;;10.33;;
4595;SDS011;2310;49.978;8.742;2024-02-21T02:11:57;19.90;;;11.70;;
4595;SDS011;2310;49.978;8.742;2024-02-21T02:16:00;17.00;;;10.93;;
4595;SDS011;2310;49.978;8.742;2024-02-21T02:20:01;16.23;;;10.40;;
4595;SDS011;2310;49.978;8.742;2024-02-21T02:24:03;22.27;;;10.07;;
4595;SDS011;2310;49.978;8.742;2024-02-21T02:28:06;16.90;;;9.33;;
4595;SDS011;2310;49.978;8.742;2024-02-21T02:32:08;19.83;;;12.60;;
4595;SDS011;2310;49.978;8.742;2024-02-21T02:36:10;16.20;;;9.40;;
4595;SDS011;2310;49.978;8.742;2024-02-21T02:40:11;18.00;;;9.63;;
4595;SDS011;2310;49.978;8.742;2024-02-21T02:44:13;17.50;;;10.07;;
4595;SDS011;2310;49.978;8.742;2024-02-21T02:48:15;19.17;;;10.40;;
4595;SDS011;2310;49.978;8.742;2024-02-21T02:52:17;16.23;;;10.70;;
4595;SDS011;2310;49.978;8.742;2024-02-21T02:56:20;15.17;;;10.37;;
4595;SDS011;2310;49.978;8.742;2024-02-21T03:00:22;16.60;;;10.20;;
4595;SDS011;2310;49.978;8.742;2024-02-21T03:04:23;17.93;;;12.07;;
4595;SDS011;2310;49.978;8.742;2024-02-21T03:08:25;15.87;;;10.73;;
4595;SDS011;2310;49.978;8.742;2024-02-21T03:12:26;16.20;;;10.30;;
4595;SDS011;2310;49.978;8.742;2024-02-21T03:16:28;22.47;;;11.40;;
4595;SDS011;2310;49.978;8.742;2024-02-21T03:20:30;18.80;;;11.13;;
4595;SDS011;2310;49.978;8.742;2024-02-21T03:24:31;16.47;;;9.93;;
4595;SDS011;2310;49.978;8.742;2024-02-21T03:28:33;15.80;;;10.33;;
4595;SDS011;2310;49.978;8.742;2024-02-21T03:32:34;17.33;;;11.07;;
4595;SDS011;2310;49.978;8.742;2024-02-21T03:36:36;14.00;;;9.50;;
4595;SDS011;2310;49.978;8.742;2024-02-21T03:40:37;20.27;;;10.90;;
4595;SDS011;2310;49.978;8.742;2024-02-21T03:44:39;17.90;;;10.07;;
4595;SDS011;2310;49.978;8.742;2024-02-21T03:48:40;15.63;;;9.50;;
4595;SDS011;2310;49.978;8.742;2024-02-21T03:52:42;16.60;;;9.80;;
4595;SDS011;2310;49.978;8.742;2024-02-21T03:56:43;13.77;;;9.40;;
4595;SDS011;2310;49.978;8.742;2024-02-21T04:00:44;21.67;;;11.20;;
4595;SDS011;2310;49.978;8.742;2024-02-21T04:04:46;16.77;;;10.33;;
4595;SDS011;2310;49.978;8.742;2024-02-21T04:08:48;19.70;;;10.47;;
4595;SDS011;2310;49.978;8.742;2024-02-21T04:12:50;15.33;;;10.00;;
4595;SDS011;2310;49.978;8.742;2024-02-21T04:16:51;17.07;;;9.70;;
4595;SDS011;2310;49.978;8.742;2024-02-21T04:20:53;16.93;;;9.70;;
4595;SDS011;2310;49.978;8.742;2024-02-21T04:24:54;17.37;;;10.70;;
4595;SDS011;2310;49.978;8.742;2024-02-21T04:28:55;12.47;;;9.43;;
4595;SDS011;2310;49.978;8.742;2024-02-21T04:32:57;15.30;;;9.63;;
4595;SDS011;2310;49.978;8.742;2024-02-21T04:36:58;18.17;;;10.40;;
4595;SDS011;2310;49.978;8.742;2024-02-21T04:41:00;18.23;;;9.50;;
4595;SDS011;2310;49.978;8.742;2024-02-21T04:45:01;16.93;;;10.83;;
4595;SDS011;2310;49.978;8.742;2024-02-21T04:49:02;18.07;;;9.47;;
4595;SDS011;2310;49.978;8.742;2024-02-21T04:53:04;16.43;;;9.47;;
4595;SDS011;2310;49.978;8.742;2024-02-21T04:57:05;14.30;;;9.60;;
4595;SDS011;2310;49.978;8.742;2024-02-21T05:01:07;14.10;;;9.83;;
4595;SDS011;2310;49.978;8.742;2024-02-21T05:05:08;16.87;;;9.70;;
4595;SDS011;2310;49.978;8.742;2024-02-21T05:09:10;18.97;;;9.90;;
4595;SDS011;2310;49.978;8.742;2024-02-21T05:13:11;15.37;;;9.93;;
4595;SDS011;2310;49.978;8.742;2024-02-21T05:17:12;13.00;;;9.30;;
4595;SDS011;2310;49.978;8.742;2024-02-21T05:21:14;17.73;;;9.97;;
4595;SDS011;2310;49.978;8.742;2024-02-21T05:25:15;17.83;;;9.60;;
4595;SDS011;2310;49.978;8.742;2024-02-21T05:29:17;18.63;;;10.03;;
4595;SDS011;2310;49.978;8.742;2024-02-21T05:33:18;13.83;;;9.53;;
4595;SDS011;2310;49.978;8.742;2024-02-21T05:37:21;17.57;;;9.63;;
4595;SDS011;2310;49.978;8.742;2024-02-21T05:41:23;16.13;;;10.07;;
4595;SDS011;2310;49.978;8.742;2024-02-21T05:45:24;14.07;;;10.10;;
4595;SDS011;2310;49.978;8.742;2024-02-21T05:49:25;21.27;;;11.73;;
4595;SDS011;2310;49.978;8.742;2024-02-21T05:53:27;16.33;;;10.33;;
4595;SDS011;2310;49.978;8.742;2024-02-21T05:57:28;15.63;;;9.60;;
4595;SDS011;2310;49.978;8.742;2024-02-21T06:01:30;15.10;;;9.40;;
4595;SDS011;2310;49.978;8.742;2024-02-21T06:05:31;19.37;;;10.20;;
4595;SDS011;2310;49.978;8.742;2024-02-21T06:09:33;19.97;;;9.63;;
4595;SDS011;2310;49.978;8.742;2024-02-21T06:13:37;16.10;;;9.27;;
4595;SDS011;2310;49.978;8.742;2024-02-21T06:17:41;15.10;;;8.93;;
4595;SDS011;2310;49.978;8.742;2024-02-21T06:21:42;19.60;;;10.13;;
4595;SDS011;2310;49.978;8.742;2024-02-21T06:25:43;18.23;;;9.97;;
4595;SDS011;2310;49.978;8.742;2024-02-21T06:29:45;14.17;;;8.30;;
4595;SDS011;2310;49.978;8.742;2024-02-21T06:33:46;18.10;;;9.00;;
4595;SDS011;2310;49.978;8.742;2024-02-21T06:37:48;16.27;;;8.90;;
4595;SDS011;2310;49.978;8.742;2024-02-21T06:41:51;20.73;;;8.57;;
4595;SDS011;2310;49.978;8.742;2024-02-21T06:45:54;14.53;;;8.20;;
4595;SDS011;2310;49.978;8.742;2024-02-21T06:49:57;13.60;;;7.33;;
4595;SDS011;2310;49.978;8.742;2024-02-21T06:53:59;12.00;;;8.10;;
4595;SDS011;2310;49.978;8.742;2024-02-21T06:58:00;14.20;;;7.70;;
4595;SDS011;2310;49.978;8.742;2024-02-21T07:02:02;15.37;;;8.37;;
4595;SDS011;2310;49.978;8.742;2024-02-21T07:06:04;13.07;;;8.00;;
4595;SDS011;2310;49.978;8.742;2024-02-21T07:10:06;16.00;;;8.80;;
4595;SDS011;2310;49.978;8.742;2024-02-21T07:14:08;12.60;;;8.10;;
4595;SDS011;2310;49.978;8.742;2024-02-21T07:18:10;14.80;;;8.00;;
4595;SDS011;2310;49.978;8.742;2024-02-21T07:22:11;15.50;;;7.80;;
4595;SDS011;2310;49.978;8.742;2024-02-21T07:26:12;18.50;;;8.20;;
4595;SDS011;2310;49.978;8.742;2024-02-21T07:30:14;15.60;;;8.20;;
4595;SDS011;2310;49.978;8.742;2024-02-21T07:34:17;11.50;;;7.90;;
4595;SDS011;2310;49.978;8.742;2024-02-21T07:38:19;18.27;;;13.90;;
4595;SDS011;2310;49.978;8.742;2024-02-21T07:42:20;17.10;;;8.33;;
4595;SDS011;2310;49.978;8.742;2024-02-21T07:46:22;14.23;;;7.90;;
4595;SDS011;2310;49.978;8.742;2024-02-21T07:50:23;18.63;;;7.43;;
4595;SDS011;2310;49.978;8.742;2024-02-21T07:54:25;17.27;;;6.40;;
4595;SDS011;2310;49.978;8.742;2024-02-21T07:58:26;12.77;;;6.73;;
4595;SDS011;2310;49.978;8.742;2024-02-21T08:02:28;11.70;;;7.47;;
4595;SDS011;2310;49.978;8.742;2024-02-21T08:06:29;16.10;;;8.40;;
4595;SDS011;2310;49.978;8.742;2024-02-21T08:10:31;16.27;;;8.00;;
4595;SDS011;2310;49.978;8.742;2024-02-21T08:14:33;12.43;;;7.10;;
4595;SDS011;2310;49.978;8.742;2024-02-21T08:18:34;12.83;;;7.07;;
4595;SDS011;2310;49.978;8.742;2024-02-21T08:22:37;12.23;;;8.10;;
4595;SDS011;2310;49.978;8.742;2024-02-21T08:26:40;11.83;;;7.00;;
4595;SDS011;2310;49.978;8.742;2024-02-21T08:30:42;11.30;;;7.03;;
4595;SDS011;2310;49.978;8.742;2024-02-21T08:34:45;10.50;;;7.10;;
4595;SDS011;2310;49.978;8.742;2024-02-21T08:38:46;10.00;;;6.20;;
4595;SDS011;2310;49.978;8.742;2024-02-21T08:42:48;12.23;;;6.57;;
4595;SDS011;2310;49.978;8.742;2024-02-21T08:46:50;12.60;;;6.97;;
4595;SDS011;2310;49.978;8.742;2024-02-21T08:50:52;12.10;;;7.90;;
4595;SDS011;2310;49.978;8.742;2024-02-21T08:54:55;14.57;;;8.63;;
4595;SDS011;2310;49.978;8.742;2024-02-21T08:58:57;14.50;;;8.03;;
4595;SDS011;2310;49.978;8.742;2024-02-21T09:02:59;8.83;;;6.03;;
4595;SDS011;2310;49.978;8.742;2024-02-21T09:07:00;12.60;;;6.37;;
4595;SDS011;2310;49.978;8.742;2024-02-21T09:11:02;11.63;;;6.13;;
4595;SDS011;2310;49.978;8.742;2024-02-21T09:15:04;11.90;;;6.50;;
4595;SDS011;2310;49.978;8.742;2024-02-21T09:19:06;11.50;;;5.80;;
4595;SDS011;2310;49.978;8.742;2024-02-21T09:23:10;9.77;;;6.23;;
4595;SDS011;2310;49.978;8.742;2024-02-21T09:27:11;13.97;;;6.17;;
4595;SDS011;2310;49.978;8.742;2024-02-21T09:31:13;10.87;;;6.23;;
4595;SDS011;2310;49.978;8.742;2024-02-21T09:35:14;13.50;;;6.50;;
4595;SDS011;2310;49.978;8.742;2024-02-21T09:39:16;9.97;;;5.93;;
4595;SDS011;2310;49.978;8.742;2024-02-21T09:43:19;11.73;;;5.57;;
4595;SDS011;2310;49.978;8.742;2024-02-21T09:47:29;16.03;;;5.97;;
4595;SDS011;2310;49.978;8.742;2024-02-21T09:51:28;8.70;;;5.30;;
4595;SDS011;2310;49.978;8.742;2024-02-21T09:55:33;11.03;;;5.40;;
4595;SDS011;2310;49.978;8.742;2024-02-21T09:59:36;8.10;;;6.27;;
4595;SDS011;2310;49.978;8.742;2024-02-21T10:03:38;12.50;;;6.50;;
4595;SDS011;2310;49.978;8.742;2024-02-21T10:07:41;12.70;;;7.37;;
4595;SDS011;2310;49.978;8.742;2024-02-21T10:11:42;13.17;;;6.10;;
4595;SDS011;2310;49.978;8.742;2024-02-21T10:15:43;11.37;;;7.10;;
4595;SDS011;2310;49.978;8.742;2024-02-21T10:19:47;11.47;;;6.80;;
4595;SDS011;2310;49.978;8.742;2024-02-21T10:23:49;12.20;;;6.70;;
4595;SDS011;2310;49.978;8.742;2024-02-21T10:27:51;10.63;;;6.53;;
4595;SDS011;2310;49.978;8.742;2024-02-21T10:32:02;10.73;;;6.60;;
4595;SDS011;2310;49.978;8.742;2024-02-21T10:36:13;14.40;;;5.80;;
4595;SDS011;2310;49.978;8.742;2024-02-21T10:40:15;9.77;;;6.47;;
4595;SDS011;2310;49.978;8.742;2024-02-21T10:44:17;13.90;;;6.80;;
4595;SDS011;2310;49.978;8.742;2024-02-21T10:48:21;9.33;;;5.60;;
4595;SDS011;2310;49.978;8.742;2024-02-21T10:56:51;12.67;;;5.37;;
4595;SDS011;2310;49.978;8.742;2024-02-21T11:00:53;9.90;;;6.60;;
4595;SDS011;2310;49.978;8.742;2024-02-21T11:04:55;8.30;;;5.83;;
4595;SDS011;2310;49.978;8.742;2024-02-21T11:08:59;15.30;;;5.87;;
4595;SDS011;2310;49.978;8.742;2024-02-21T11:13:09;9.93;;;5.90;;
4595;SDS011;2310;49.978;8.742;2024-02-21T11:17:16;9.57;;;6.40;;
4595;SDS011;2310;49.978;8.742;2024-02-21T11:21:21;15.27;;;5.83;;
4595;SDS011;2310;49.978;8.742;2024-02-21T11:25:22;12.83;;;6.30;;
4595;SDS011;2310;49.978;8.742;2024-02-21T11:29:26;13.10;;;6.60;;
4595;SDS011;2310;49.978;8.742;2024-02-21T11:33:27;10.77;;;6.87;;
4595;SDS011;2310;49.978;8.742;2024-02-21T11:37:31;11.70;;;6.93;;
4595;SDS011;2310;49.978;8.742;2024-02-21T11:41:35;14.90;;;7.40;;
4595;SDS011;2310;49.978;8.742;2024-02-21T11:45:36;7.80;;;5.70;;
4595;SDS011;2310;49.978;8.742;2024-02-21T11:49:42;11.40;;;6.00;;
4595;SDS011;2310;49.978;8.742;2024-02-21T11:53:44;13.97;;;6.43;;
4595;SDS011;2310;49.978;8.742;2024-02-21T11:57:48;12.83;;;6.23;;
4595;SDS011;2310;49.978;8.742;2024-02-21T12:01:50;10.53;;;6.60;;
4595;SDS011;2310;49.978;8.742;2024-02-21T12:05:53;12.70;;;7.37;;
4595;SDS011;2310;49.978;8.742;2024-02-21T12:09:59;15.50;;;6.60;;
4595;SDS011;2310;49.978;8.742;2024-02-21T12:14:04;12.80;;;5.30;;
4595;SDS011;2310;49.978;8.742;2024-02-21T12:18:07;11.70;;;5.67;;
4595;SDS011;2310;49.978;8.742;2024-02-21T12:22:16;10.67;;;5.97;;
4595;SDS011;2310;49.978;8.742;2024-02-21T12:26:16;11.13;;;6.07;;
4595;SDS011;2310;49.978;8.742;2024-02-21T12:30:18;10.57;;;5.70;;
4595;SDS011;2310;49.978;8.742;2024-02-21T12:34:21;10.97;;;6.60;;
4595;SDS011;2310;49.978;8.742;2024-02-21T12:38:27;14.63;;;5.50;;
4595;SDS011;2310;49.978;8.742;2024-02-21T12:42:29;8.57;;;5.00;;
4595;SDS011;2310;49.978;8.742;2024-02-21T12:46:35;9.60;;;5.23;;
4595;SDS011;2310;49.978;8.742;2024-02-21T12:50:37;11.07;;;5.90;;
4595;SDS011;2310;49.978;8.742;2024-02-21T12:54:41;13.27;;;4.37;;
4595;SDS011;2310;49.978;8.742;2024-02-21T12:58:43;8.50;;;4.73;;
4595;SDS011;2310;49.978;8.742;2024-02-21T13:02:45;11.40;;;4.87;;
4595;SDS011;2310;49.978;8.742;2024-02-21T13:06:48;8.70;;;4.70;;
4595;SDS011;2310;49.978;8.742;2024-02-21T13:10:50;13.03;;;5.70;;
4595;SDS011;2310;49.978;8.742;2024-02-21T13:14:53;10.63;;;4.90;;
4595;SDS011;2310;49.978;8.742;2024-02-21T13:18:55;7.10;;;4.47;;
4595;SDS011;2310;49.978;8.742;2024-02-21T13:22:56;8.00;;;4.13;;
4595;SDS011;2310;49.978;8.742;2024-02-21T13:26:58;7.70;;;3.93;;
4595;SDS011;2310;49.978;8.742;2024-02-21T13:30:59;12.77;;;5.17;;
4595;SDS011;2310;49.978;8.742;2024-02-21T13:35:00;7.93;;;4.07;;
4595;SDS011;2310;49.978;8.742;2024-02-21T13:39:02;9.60;;;5.00;;
4595;SDS011;2310;49.978;8.742;2024-02-21T13:43:06;9.20;;;5.87;;
4595;SDS011;2310;49.978;8.742;2024-02-21T13:47:09;9.33;;;5.80;;
4595;SDS011;2310;49.978;8.742;2024-02-21T13:51:12;12.07;;;5.27;;
4595;SDS011;2310;49.978;8.742;2024-02-21T13:55:13;12.07;;;5.00;;
4595;SDS011;2310;49.978;8.742;2024-02-21T13:59:15;10.63;;;4.37;;
4595;SDS011;2310;49.978;8.742;2024-02-21T14:03:17;11.07;;;4.37;;
4595;SDS011;2310;49.978;8.742;2024-02-21T14:07:20;8.03;;;4.10;;
4595;SDS011;2310;49.978;8.742;2024-02-21T14:11:21;9.27;;;4.30;;
4595;SDS011;2310;49.978;8.742;2024-02-21T14:15:23;8.00;;;4.10;;
4595;SDS011;2310;49.978;8.742;2024-02-21T14:19:26;9.80;;;5.13;;
4595;SDS011;2310;49.978;8.742;2024-02-21T14:23:27;11.53;;;4.57;;
4595;SDS011;2310;49.978;8.742;2024-02-21T14:27:29;9.07;;;4.03;;
4595;SDS011;2310;49.978;8.742;2024-02-21T14:31:33;8.87;;;4.23;;
4595;SDS011;2310;49.978;8.742;2024-02-21T14:35:36;12.03;;;5.03;;
4595;SDS011;2310;49.978;8.742;2024-02-21T14:39:38;9.37;;;4.80;;
4595;SDS011;2310;49.978;8.742;2024-02-21T14:43:41;10.00;;;5.20;;
4595;SDS011;2310;49.978;8.742;2024-02-21T14:47:44;7.90;;;3.90;;
4595;SDS011;2310;49.978;8.742;2024-02-21T14:51:45;10.70;;;5.00;;
4595;SDS011;2310;49.978;8.742;2024-02-21T14:55:47;10.63;;;4.07;;
4595;SDS011;2310;49.978;8.742;2024-02-21T14:59:49;7.13;;;4.10;;
4595;SDS011;2310;49.978;8.742;2024-02-21T15:03:51;9.73;;;4.40;;
4595;SDS011;2310;49.978;8.742;2024-02-21T15:07:52;8.83;;;4.60;;
4595;SDS011;2310;49.978;8.742;2024-02-21T15:11:54;10.10;;;4.30;;
4595;SDS011;2310;49.978;8.742;2024-02-21T15:15:56;8.40;;;3.90;;
4595;SDS011;2310;49.978;8.742;2024-02-21T15:19:57;9.97;;;3.60;;
4595;SDS011;2310;49.978;8.742;2024-02-21T15:24:00;8.60;;;3.53;;
4595;SDS011;2310;49.978;8.742;2024-02-21T15:28:03;10.43;;;3.40;;
4595;SDS011;2310;49.978;8.742;2024-02-21T15:32:08;8.47;;;3.50;;
4595;SDS011;2310;49.978;8.742;2024-02-21T15:36:10;9.20;;;3.63;;
4595;SDS011;2310;49.978;8.742;2024-02-21T15:40:12;7.70;;;3.50;;
4595;SDS011;2310;49.978;8.742;2024-02-21T15:44:13;5.40;;;2.97;;
4595;SDS011;2310;49.978;8.742;2024-02-21T15:48:15;7.23;;;3.73;;
4595;SDS011;2310;49.978;8.742;2024-02-21T15:52:17;7.27;;;3.63;;
4595;SDS011;2310;49.978;8.742;2024-02-21T15:56:18;8.80;;;4.00;;
4595;SDS011;2310;49.978;8.742;2024-02-21T16:00:20;9.20;;;4.23;;
4595;SDS011;2310;49.978;8.742;2024-02-21T16:04:23;7.10;;;3.73;;
4595;SDS011;2310;49.978;8.742;2024-02-21T16:08:25;9.17;;;4.83;;
4595;SDS011;2310;49.978;8.742;2024-02-21T16:12:28;10.80;;;4.33;;
4595;SDS011;2310;49.978;8.742;2024-02-21T16:16:32;9.30;;;3.70;;
4595;SDS011;2310;49.978;8.742;2024-02-21T16:20:34;14.57;;;3.97;;
4595;SDS011;2310;49.978;8.742;2024-02-21T16:24:36;7.20;;;3.33;;
4595;SDS011;2310;49.978;8.742;2024-02-21T16:28:38;6.90;;;3.50;;
4595;SDS011;2310;49.978;8.742;2024-02-21T16:32:39;7.60;;;3.40;;
4595;SDS011;2310;49.978;8.742;2024-02-21T16:36:43;8.17;;;3.10;;
4595;SDS011;2310;49.978;8.742;2024-02-21T16:40:45;9.33;;;3.97;;
4595;SDS011;2310;49.978;8.742;2024-02-21T16:44:47;9.83;;;4.63;;
4595;SDS011;2310;49.978;8.742;2024-02-21T16:48:49;6.70;;;2.87;;
4595;SDS011;2310;49.978;8.742;2024-02-21T16:52:51;5.90;;;3.10;;
4595;SDS011;2310;49.978;8.742;2024-02-21T16:56:53;6.67;;;3.10;;
4595;SDS011;2310;49.978;8.742;2024-02-21T17:00:55;12.27;;;10.83;;
4595;SDS011;2310;49.978;8.742;2024-02-21T17:04:57;9.03;;;3.03;;
4595;SDS011;2310;49.978;8.742;2024-02-21T17:09:01;9.67;;;4.23;;
4595;SDS011;2310;49.978;8.742;2024-02-21T17:13:04;7.40;;;3.43;;
4595;SDS011;2310;49.978;8.742;2024-02-21T17:17:06;7.00;;;3.70;;
4595;SDS011;2310;49.978;8.742;2024-02-21T17:21:08;6.40;;;2.63;;
4595;SDS011;2310;49.978;8.742;2024-02-21T17:25:10;4.67;;;3.10;;
4595;SDS011;2310;49.978;8.742;2024-02-21T17:29:11;5.77;;;2.87;;
4595;SDS011;2310;49.978;8.742;2024-02-21T17:33:14;4.70;;;2.60;;
4595;SDS011;2310;49.978;8.742;2024-02-21T17:37:16;6.10;;;2.30;;
4595;SDS011;2310;49.978;8.742;2024-02-21T17:41:17;5.30;;;2.27;;
4595;SDS011;2310;49.978;8.742;2024-02-21T17:45:19;5.50;;;2.53;;
4595;SDS011;2310;49.978;8.742;2024-02-21T17:49:21;9.83;;;5.03;;
4595;SDS011;2310;49.978;8.742;2024-02-21T17:53:22;4.97;;;2.60;;
4595;SDS011;2310;49.978;8.742;2024-02-21T17:57:24;6.47;;;3.40;;
4595;SDS011;2310;49.978;8.742;2024-02-21T18:01:27;6.43;;;3.20;;
4595;SDS011;2310;49.978;8.742;2024-02-21T18:05:28;9.17;;;3.43;;
4595;SDS011;2310;49.978;8.742;2024-02-21T18:09:32;10.00;;;3.70;;
4595;SDS011;2310;49.978;8.742;2024-02-21T18:13:35;7.90;;;4.90;;
4595;SDS011;2310;49.978;8.742;2024-02-21T18:17:36;7.37;;;3.00;;
4595;SDS011;2310;49.978;8.742;2024-02-21T18:21:39;8.53;;;2.70;;
4595;SDS011;2310;49.978;8.742;2024-02-21T18:25:41;6.03;;;2.70;;
4595;SDS011;2310;49.978;8.742;2024-02-21T18:29:42;8.67;;;3.40;;
4595;SDS011;2310;49.978;8.742;2024-02-21T18:33:46;6.50;;;3.20;;
4595;SDS011;2310;49.978;8.742;2024-02-21T18:37:47;7.77;;;2.43;;
4595;SDS011;2310;49.978;8.742;2024-02-21T18:41:51;7.33;;;2.90;;
4595;SDS011;2310;49.978;8.742;2024-02-21T18:45:52;6.53;;;3.77;;
4595;SDS011;2310;49.978;8.742;2024-02-21T18:49:53;6.10;;;2.63;;
4595;SDS011;2310;49.978;8.742;2024-02-21T18:53:55;7.80;;;3.43;;
4595;SDS011;2310;49.978;8.742;2024-02-21T18:57:56;7.77;;;4.20;;
4595;SDS011;2310;49.978;8.742;2024-02-21T19:01:58;6.60;;;3.90;;
4595;SDS011;2310;49.978;8.742;2024-02-21T19:05:59;8.23;;;3.67;;
4595;SDS011;2310;49.978;8.742;2024-02-21T19:10:01;7.27;;;2.70;;
4595;SDS011;2310;49.978;8.742;2024-02-21T19:14:04;8.73;;;3.37;;
4595;SDS011;2310;49.978;8.742;2024-02-21T19:18:06;5.57;;;2.40;;
4595;SDS011;2310;49.978;8.742;2024-02-21T19:22:10;5.40;;;2.50;;
4595;SDS011;2310;49.978;8.742;2024-02-21T19:26:11;6.10;;;3.00;;
4595;SDS011;2310;49.978;8.742;2024-02-21T19:30:13;10.10;;;2.93;;
4595;SDS011;2310;49.978;8.742;2024-02-21T19:34:15;6.93;;;3.40;;
4595;SDS011;2310;49.978;8.742;2024-02-21T19:38:17;8.97;;;4.73;;
4595;SDS011;2310;49.978;8.742;2024-02-21T19:42:18;5.87;;;4.50;;
4595;SDS011;2310;49.978;8.742;2024-02-21T19:46:20;7.07;;;3.57;;
4595;SDS011;2310;49.978;8.742;2024-02-21T19:50:21;6.10;;;2.83;;
4595;SDS011;2310;49.978;8.742;2024-02-21T19:54:23;5.57;;;2.80;;
4595;SDS011;2310;49.978;8.742;2024-02-21T19:58:26;5.33;;;3.83;;
4595;SDS011;2310;49.978;8.742;2024-02-21T20:02:27;6.03;;;3.07;;
4595;SDS011;2310;49.978;8.742;2024-02-21T20:06:29;5.33;;;2.77;;
4595;SDS011;2310;49.978;8.742;2024-02-21T20:10:30;6.20;;;3.70;;
4595;SDS011;2310;49.978;8.742;2024-02-21T20:14:32;5.70;;;2.93;;
4595;SDS011;2310;49.978;8.742;2024-02-21T20:18:33;9.30;;;4.00;;
4595;SDS011;2310;49.978;8.742;2024-02-21T20:22:35;7.90;;;3.30;;
4595;SDS011;2310;49.978;8.742;2024-02-21T20:26:36;5.57;;;3.47;;
4595;SDS011;2310;49.978;8.742;2024-02-21T20:30:40;7.07;;;4.00;;
4595;SDS011;2310;49.978;8.742;2024-02-21T20:34:42;6.13;;;3.20;;
4595;SDS011;2310;49.978;8.742;2024-02-21T20:38:44;8.50;;;4.43;;
4595;SDS011;2310;49.978;8.742;2024-02-21T20:42:45;6.03;;;3.10;;
4595;SDS011;2310;49.978;8.742;2024-02-21T20:46:47;7.00;;;3.93;;
4595;SDS011;2310;49.978;8.742;2024-02-21T20:50:48;9.73;;;3.37;;
4595;SDS011;2310;49.978;8.742;2024-02-21T20:54:50;8.67;;;3.73;;
4595;SDS011;2310;49.978;8.742;2024-02-21T20:58:51;6.70;;;2.93;;
4595;SDS011;2310;49.978;8.742;2024-02-21T21:02:53;6.93;;;3.60;;
4595;SDS011;2310;49.978;8.742;2024-02-21T21:06:55;8.20;;;3.53;;
4595;SDS011;2310;49.978;8.742;2024-02-21T21:10:56;8.07;;;3.57;;
4595;SDS011;2310;49.978;8.742;2024-02-21T21:14:58;6.60;;;3.10;;
4595;SDS011;2310;49.978;8.742;2024-02-21T21:18:59;9.60;;;3.10;;
4595;SDS011;2310;49.978;8.742;2024-02-21T21:23:01;5.00;;;2.80;;
4595;SDS011;2310;49.978;8.742;2024-02-21T21:27:03;6.93;;;2.97;;
4595;SDS011;2310;49.978;8.742;2024-02-21T21:31:05;5.77;;;3.20;;
4595;SDS011;2310;49.978;8.742;2024-02-21T21:35:09;7.03;;;3.17;;
4595;SDS011;2310;49.978;8.742;2024-02-21T21:39:11;6.63;;;3.37;;
4595;SDS011;2310;49.978;8.742;2024-02-21T21:43:14;7.50;;;3.93;;
4595;SDS011;2310;49.978;8.742;2024-02-21T21:47:17;7.10;;;3.67;;
4595;SDS011;2310;49.978;8.742;2024-02-21T21:51:19;7.10;;;3.37;;
4595;SDS011;2310;49.978;8.742;2024-02-21T21:55:21;7.43;;;3.60;;
4595;SDS011;2310;49.978;8.742;2024-02-21T21:59:22;7.23;;;3.33;;
4595;SDS011;2310;49.978;8.742;2024-02-21T22:03:23;11.30;;;4.63;;
4595;SDS011;2310;49.978;8.742;2024-02-21T22:07:25;5.93;;;4.00;;
4595;SDS011;2310;49.978;8.742;2024-02-21T22:11:26;6.10;;;4.00;;
4595;SDS011;2310;49.978;8.742;2024-02-21T22:15:28;5.30;;;3.20;;
4595;SDS011;2310;49.978;8.742;2024-02-21T22:19:30;7.43;;;3.73;;
4595;SDS011;2310;49.978;8.742;2024-02-21T22:23:31;8.03;;;4.57;;
4595;SDS011;2310;49.978;8.742;2024-02-21T22:27:34;8.07;;;4.40;;
4595;SDS011;2310;49.978;8.742;2024-02-21T22:31:35;6.63;;;4.80;;
4595;SDS011;2310;49.978;8.742;2024-02-21T22:35:37;7.33;;;4.07;;
4595;SDS011;2310;49.978;8.742;2024-02-21T22:39:38;9.67;;;4.60;;
4595;SDS011;2310;49.978;8.742;2024-02-21T22:43:40;7.30;;;4.33;;
4595;SDS011;2310;49.978;8.742;2024-02-21T22:47:41;6.20;;;3.70;;
4595;SDS011;2310;49.978;8.742;2024-02-21T22:51:42;6.27;;;4.13;;
4595;SDS011;2310;49.978;8.742;2024-02-21T22:55:44;8.23;;;4.03;;
4595;SDS011;2310;49.978;8.742;2024-02-21T22:59:45;7.07;;;3.90;;
4595;SDS011;2310;49.978;8.742;2024-02-21T23:03:47;6.60;;;3.83;;
4595;SDS011;2310;49.978;8.742;2024-02-21T23:07:49;8.33;;;4.13;;
4595;SDS011;2310;49.978;8.742;2024-02-21T23:11:53;6.47;;;3.83;;
4595;SDS011;2310;49.978;8.742;2024-02-21T23:15:54;6.27;;;3.90;;
4595;SDS011;2310;49.978;8.742;2024-02-21T23:19:56;5.83;;;2.93;;
4595;SDS011;2310;49.978;8.742;2024-02-21T23:23:57;5.83;;;3.20;;
4595;SDS011;2310;49.978;8.742;2024-02-21T23:27:58;6.40;;;3.10;;
4595;SDS011;2310;49.978;8.742;2024-02-21T23:32:00;6.67;;;3.13;;
4595;SDS011;2310;49.978;8.742;2024-02-21T23:36:04;5.50;;;3.20;;
4595;SDS011;2310;49.978;8.742;2024-02-21T23:40:06;9.43;;;4.00;;
4595;SDS011;2310;49.978;8.742;2024-02-21T23:44:10;4.67;;;2.87;;
4595;SDS011;2310;49.978;8.742;2024-02-21T23:48:13;5.83;;;3.03;;
4595;SDS011;2310;49.978;8.742;2024-02-21T23:52:16;6.27;;;2.97;;
4595;SDS011;2310;49.978;8.742;2024-02-21T23:56:17;5.90;;;2.80;;
